Search for airport 
image banner adimage banner adimage banner ad
image banner ad

CA92 - Paradise Skypark

Located in Paradise, United States

ICAO - CA92, IATA -

Data provided by Airmate  

General information

Coordinates: N39°42'38" W121°36'59"
Elevation is 1300 feet MSL.
Magnetic variation is 17° East
View others Airports in California

Operational data

Special qualification required
Current time UTC:
Current local time:
Weather at : KCIC - Chico Muni ( 23 km )
METAR: KCIC 221450Z 14013KT 40SM FEW170 19/12 A2989
View NOTAMs / SUP AIP / TFR affecting this airport [VIEW]
Communications frequencies: [VIEW]

Runways:

RWY identifierQFULength (ft)Width (ft)SurfaceLDA (ft)
17181°301760ASPH
35301760ASPH

Airport contact information

Address: Paradise United States

Satellite view of CA92